sensor_id;sensor_type;location;lat;lon;timestamp;P1;durP1;ratioP1;P2;durP2;ratioP2
14342;SDS011;7255;53.596;9.960;2023-02-28T00:00:06;7.23;;;2.23;;
14342;SDS011;7255;53.596;9.960;2023-02-28T00:02:36;5.00;;;2.60;;
14342;SDS011;7255;53.596;9.960;2023-02-28T00:05:03;2.77;;;2.47;;
14342;SDS011;7255;53.596;9.960;2023-02-28T00:07:30;3.77;;;3.10;;
14342;SDS011;7255;53.596;9.960;2023-02-28T00:09:56;3.17;;;2.60;;
14342;SDS011;7255;53.596;9.960;2023-02-28T00:12:23;3.30;;;2.67;;
14342;SDS011;7255;53.596;9.960;2023-02-28T00:14:50;3.00;;;2.70;;
14342;SDS011;7255;53.596;9.960;2023-02-28T00:17:18;3.20;;;2.57;;
14342;SDS011;7255;53.596;9.960;2023-02-28T00:19:47;2.13;;;2.03;;
14342;SDS011;7255;53.596;9.960;2023-02-28T00:22:14;3.80;;;2.90;;
14342;SDS011;7255;53.596;9.960;2023-02-28T00:24:41;3.37;;;3.07;;
14342;SDS011;7255;53.596;9.960;2023-02-28T00:27:07;5.03;;;2.60;;
14342;SDS011;7255;53.596;9.960;2023-02-28T00:29:34;6.23;;;2.70;;
14342;SDS011;7255;53.596;9.960;2023-02-28T00:32:00;5.07;;;2.83;;
14342;SDS011;7255;53.596;9.960;2023-02-28T00:34:26;2.73;;;2.53;;
14342;SDS011;7255;53.596;9.960;2023-02-28T00:36:54;4.60;;;2.47;;
14342;SDS011;7255;53.596;9.960;2023-02-28T00:39:20;3.37;;;2.33;;
14342;SDS011;7255;53.596;9.960;2023-02-28T00:41:47;4.63;;;2.93;;
14342;SDS011;7255;53.596;9.960;2023-02-28T00:44:13;3.83;;;2.67;;
14342;SDS011;7255;53.596;9.960;2023-02-28T00:46:40;3.00;;;2.23;;
14342;SDS011;7255;53.596;9.960;2023-02-28T00:49:06;3.30;;;2.73;;
14342;SDS011;7255;53.596;9.960;2023-02-28T00:51:32;3.20;;;2.60;;
14342;SDS011;7255;53.596;9.960;2023-02-28T00:54:00;4.27;;;3.17;;
14342;SDS011;7255;53.596;9.960;2023-02-28T00:56:26;2.97;;;2.77;;
14342;SDS011;7255;53.596;9.960;2023-02-28T00:58:52;3.13;;;2.70;;
14342;SDS011;7255;53.596;9.960;2023-02-28T01:01:19;4.00;;;3.20;;
14342;SDS011;7255;53.596;9.960;2023-02-28T01:03:45;4.17;;;2.60;;
14342;SDS011;7255;53.596;9.960;2023-02-28T01:06:11;4.27;;;2.70;;
14342;SDS011;7255;53.596;9.960;2023-02-28T01:08:38;5.43;;;3.03;;
14342;SDS011;7255;53.596;9.960;2023-02-28T01:11:09;4.50;;;2.80;;
14342;SDS011;7255;53.596;9.960;2023-02-28T01:13:36;2.83;;;2.63;;
14342;SDS011;7255;53.596;9.960;2023-02-28T01:16:03;2.93;;;2.43;;
14342;SDS011;7255;53.596;9.960;2023-02-28T01:18:30;2.93;;;2.50;;
14342;SDS011;7255;53.596;9.960;2023-02-28T01:20:56;2.70;;;2.50;;
14342;SDS011;7255;53.596;9.960;2023-02-28T01:23:23;4.30;;;2.87;;
14342;SDS011;7255;53.596;9.960;2023-02-28T01:25:50;3.60;;;2.63;;
14342;SDS011;7255;53.596;9.960;2023-02-28T01:28:17;5.67;;;2.73;;
14342;SDS011;7255;53.596;9.960;2023-02-28T01:30:47;2.60;;;2.40;;
14342;SDS011;7255;53.596;9.960;2023-02-28T01:33:14;3.67;;;2.47;;
14342;SDS011;7255;53.596;9.960;2023-02-28T01:35:41;5.93;;;2.73;;
14342;SDS011;7255;53.596;9.960;2023-02-28T01:38:07;4.67;;;2.80;;
14342;SDS011;7255;53.596;9.960;2023-02-28T01:40:33;4.07;;;2.60;;
14342;SDS011;7255;53.596;9.960;2023-02-28T01:43:00;5.70;;;2.73;;
14342;SDS011;7255;53.596;9.960;2023-02-28T01:45:28;5.93;;;2.67;;
14342;SDS011;7255;53.596;9.960;2023-02-28T01:47:57;2.73;;;2.50;;
14342;SDS011;7255;53.596;9.960;2023-02-28T01:50:26;4.13;;;3.00;;
14342;SDS011;7255;53.596;9.960;2023-02-28T01:52:58;4.43;;;2.50;;
14342;SDS011;7255;53.596;9.960;2023-02-28T01:55:27;5.53;;;2.97;;
14342;SDS011;7255;53.596;9.960;2023-02-28T01:57:56;3.23;;;2.93;;
14342;SDS011;7255;53.596;9.960;2023-02-28T02:00:24;3.50;;;2.97;;
14342;SDS011;7255;53.596;9.960;2023-02-28T02:02:55;4.10;;;2.77;;
14342;SDS011;7255;53.596;9.960;2023-02-28T02:05:25;4.33;;;3.17;;
14342;SDS011;7255;53.596;9.960;2023-02-28T02:07:56;5.13;;;3.13;;
14342;SDS011;7255;53.596;9.960;2023-02-28T02:10:27;4.60;;;3.33;;
14342;SDS011;7255;53.596;9.960;2023-02-28T02:13:02;3.13;;;2.77;;
14342;SDS011;7255;53.596;9.960;2023-02-28T02:15:38;5.53;;;3.33;;
14342;SDS011;7255;53.596;9.960;2023-02-28T02:18:11;4.27;;;2.77;;
14342;SDS011;7255;53.596;9.960;2023-02-28T02:23:52;3.93;;;3.53;;
14342;SDS011;7255;53.596;9.960;2023-02-28T02:26:42;7.60;;;3.73;;
14342;SDS011;7255;53.596;9.960;2023-02-28T02:29:23;4.73;;;3.20;;
14342;SDS011;7255;53.596;9.960;2023-02-28T02:32:16;7.73;;;5.00;;
14342;SDS011;7255;53.596;9.960;2023-02-28T02:35:12;5.40;;;3.90;;
14342;SDS011;7255;53.596;9.960;2023-02-28T02:37:40;8.30;;;4.83;;
14342;SDS011;7255;53.596;9.960;2023-02-28T02:40:13;9.83;;;6.43;;
14342;SDS011;7255;53.596;9.960;2023-02-28T02:42:44;13.23;;;5.73;;
14342;SDS011;7255;53.596;9.960;2023-02-28T02:45:17;7.20;;;5.37;;
14342;SDS011;7255;53.596;9.960;2023-02-28T02:47:49;11.87;;;6.63;;
14342;SDS011;7255;53.596;9.960;2023-02-28T02:50:19;10.17;;;6.07;;
14342;SDS011;7255;53.596;9.960;2023-02-28T02:52:51;12.63;;;7.83;;
14342;SDS011;7255;53.596;9.960;2023-02-28T02:55:21;14.93;;;7.60;;
14342;SDS011;7255;53.596;9.960;2023-02-28T02:57:49;12.80;;;7.33;;
14342;SDS011;7255;53.596;9.960;2023-02-28T03:00:20;20.57;;;8.83;;
14342;SDS011;7255;53.596;9.960;2023-02-28T03:02:52;13.80;;;8.00;;
14342;SDS011;7255;53.596;9.960;2023-02-28T03:05:23;12.53;;;7.27;;
14342;SDS011;7255;53.596;9.960;2023-02-28T03:07:51;12.03;;;6.87;;
14342;SDS011;7255;53.596;9.960;2023-02-28T03:10:32;11.43;;;6.77;;
14342;SDS011;7255;53.596;9.960;2023-02-28T03:13:11;8.80;;;6.40;;
14342;SDS011;7255;53.596;9.960;2023-02-28T03:15:49;9.40;;;6.07;;
14342;SDS011;7255;53.596;9.960;2023-02-28T03:18:24;9.00;;;5.80;;
14342;SDS011;7255;53.596;9.960;2023-02-28T03:20:59;7.50;;;5.40;;
14342;SDS011;7255;53.596;9.960;2023-02-28T03:23:34;9.20;;;6.93;;
14342;SDS011;7255;53.596;9.960;2023-02-28T03:26:05;9.13;;;5.47;;
14342;SDS011;7255;53.596;9.960;2023-02-28T03:28:40;8.47;;;5.80;;
14342;SDS011;7255;53.596;9.960;2023-02-28T03:31:13;7.43;;;6.20;;
14342;SDS011;7255;53.596;9.960;2023-02-28T03:33:44;10.40;;;6.10;;
14342;SDS011;7255;53.596;9.960;2023-02-28T03:36:21;10.63;;;6.13;;
14342;SDS011;7255;53.596;9.960;2023-02-28T03:38:50;11.33;;;6.67;;
14342;SDS011;7255;53.596;9.960;2023-02-28T03:41:22;10.17;;;6.83;;
14342;SDS011;7255;53.596;9.960;2023-02-28T03:43:53;20.00;;;9.97;;
14342;SDS011;7255;53.596;9.960;2023-02-28T03:46:25;18.83;;;10.90;;
14342;SDS011;7255;53.596;9.960;2023-02-28T03:48:55;16.87;;;10.63;;
14342;SDS011;7255;53.596;9.960;2023-02-28T03:51:28;19.47;;;11.70;;
14342;SDS011;7255;53.596;9.960;2023-02-28T03:53:56;19.83;;;11.37;;
14342;SDS011;7255;53.596;9.960;2023-02-28T03:56:27;16.07;;;8.80;;
14342;SDS011;7255;53.596;9.960;2023-02-28T03:59:00;15.87;;;10.27;;
14342;SDS011;7255;53.596;9.960;2023-02-28T04:01:31;17.70;;;9.87;;
14342;SDS011;7255;53.596;9.960;2023-02-28T04:04:01;18.03;;;8.67;;
14342;SDS011;7255;53.596;9.960;2023-02-28T04:06:30;16.93;;;10.27;;
14342;SDS011;7255;53.596;9.960;2023-02-28T04:08:58;13.80;;;8.70;;
14342;SDS011;7255;53.596;9.960;2023-02-28T04:11:27;13.63;;;8.27;;
14342;SDS011;7255;53.596;9.960;2023-02-28T04:13:59;14.77;;;8.17;;
14342;SDS011;7255;53.596;9.960;2023-02-28T04:16:26;16.80;;;9.27;;
14342;SDS011;7255;53.596;9.960;2023-02-28T04:18:52;12.27;;;8.33;;
14342;SDS011;7255;53.596;9.960;2023-02-28T04:21:18;14.07;;;8.80;;
14342;SDS011;7255;53.596;9.960;2023-02-28T04:23:48;17.43;;;7.77;;
14342;SDS011;7255;53.596;9.960;2023-02-28T04:26:14;11.23;;;7.63;;
14342;SDS011;7255;53.596;9.960;2023-02-28T04:28:41;12.70;;;8.57;;
14342;SDS011;7255;53.596;9.960;2023-02-28T04:31:07;10.03;;;7.27;;
14342;SDS011;7255;53.596;9.960;2023-02-28T04:33:34;10.63;;;7.77;;
14342;SDS011;7255;53.596;9.960;2023-02-28T04:36:01;13.93;;;7.00;;
14342;SDS011;7255;53.596;9.960;2023-02-28T04:38:29;12.30;;;7.83;;
14342;SDS011;7255;53.596;9.960;2023-02-28T04:40:58;15.73;;;7.93;;
14342;SDS011;7255;53.596;9.960;2023-02-28T04:43:25;15.23;;;8.83;;
14342;SDS011;7255;53.596;9.960;2023-02-28T04:45:52;13.70;;;7.47;;
14342;SDS011;7255;53.596;9.960;2023-02-28T04:48:19;9.60;;;7.20;;
14342;SDS011;7255;53.596;9.960;2023-02-28T04:50:45;11.00;;;7.87;;
14342;SDS011;7255;53.596;9.960;2023-02-28T04:53:12;12.40;;;6.80;;
14342;SDS011;7255;53.596;9.960;2023-02-28T04:55:38;15.57;;;7.67;;
14342;SDS011;7255;53.596;9.960;2023-02-28T04:58:06;13.13;;;8.13;;
14342;SDS011;7255;53.596;9.960;2023-02-28T05:00:33;11.90;;;7.00;;
14342;SDS011;7255;53.596;9.960;2023-02-28T05:02:59;11.07;;;7.60;;
14342;SDS011;7255;53.596;9.960;2023-02-28T05:05:26;10.27;;;6.60;;
14342;SDS011;7255;53.596;9.960;2023-02-28T05:07:52;10.00;;;6.83;;
14342;SDS011;7255;53.596;9.960;2023-02-28T05:10:20;14.00;;;6.80;;
14342;SDS011;7255;53.596;9.960;2023-02-28T05:12:47;10.87;;;6.37;;
14342;SDS011;7255;53.596;9.960;2023-02-28T05:15:15;10.17;;;6.27;;
14342;SDS011;7255;53.596;9.960;2023-02-28T05:17:43;10.57;;;6.80;;
14342;SDS011;7255;53.596;9.960;2023-02-28T05:20:10;9.23;;;6.40;;
14342;SDS011;7255;53.596;9.960;2023-02-28T05:22:38;8.80;;;6.30;;
14342;SDS011;7255;53.596;9.960;2023-02-28T05:25:05;10.37;;;7.73;;
14342;SDS011;7255;53.596;9.960;2023-02-28T05:27:32;8.37;;;6.50;;
14342;SDS011;7255;53.596;9.960;2023-02-28T05:29:59;9.80;;;6.60;;
14342;SDS011;7255;53.596;9.960;2023-02-28T05:32:29;7.83;;;6.37;;
14342;SDS011;7255;53.596;9.960;2023-02-28T05:34:56;10.73;;;6.40;;
14342;SDS011;7255;53.596;9.960;2023-02-28T05:37:22;12.47;;;7.00;;
14342;SDS011;7255;53.596;9.960;2023-02-28T05:39:48;10.40;;;7.57;;
14342;SDS011;7255;53.596;9.960;2023-02-28T05:42:14;9.43;;;7.10;;
14342;SDS011;7255;53.596;9.960;2023-02-28T05:44:41;7.47;;;6.47;;
14342;SDS011;7255;53.596;9.960;2023-02-28T05:47:07;11.27;;;6.57;;
14342;SDS011;7255;53.596;9.960;2023-02-28T05:49:34;9.27;;;7.00;;
14342;SDS011;7255;53.596;9.960;2023-02-28T05:52:01;12.30;;;7.90;;
14342;SDS011;7255;53.596;9.960;2023-02-28T05:54:27;11.67;;;7.90;;
14342;SDS011;7255;53.596;9.960;2023-02-28T05:56:53;12.07;;;6.27;;
14342;SDS011;7255;53.596;9.960;2023-02-28T05:59:19;12.20;;;7.20;;
14342;SDS011;7255;53.596;9.960;2023-02-28T06:01:46;11.13;;;7.53;;
14342;SDS011;7255;53.596;9.960;2023-02-28T06:04:14;12.30;;;6.43;;
14342;SDS011;7255;53.596;9.960;2023-02-28T06:06:45;9.20;;;6.50;;
14342;SDS011;7255;53.596;9.960;2023-02-28T06:09:11;11.47;;;7.53;;
14342;SDS011;7255;53.596;9.960;2023-02-28T06:11:38;10.77;;;7.17;;
14342;SDS011;7255;53.596;9.960;2023-02-28T06:14:04;12.03;;;7.37;;
14342;SDS011;7255;53.596;9.960;2023-02-28T06:16:32;7.77;;;6.50;;
14342;SDS011;7255;53.596;9.960;2023-02-28T06:19:00;14.00;;;7.33;;
14342;SDS011;7255;53.596;9.960;2023-02-28T06:21:29;9.63;;;6.53;;
14342;SDS011;7255;53.596;9.960;2023-02-28T06:23:57;11.57;;;6.70;;
14342;SDS011;7255;53.596;9.960;2023-02-28T06:26:24;7.97;;;6.83;;
14342;SDS011;7255;53.596;9.960;2023-02-28T06:28:50;14.47;;;7.47;;
14342;SDS011;7255;53.596;9.960;2023-02-28T06:31:17;8.90;;;6.57;;
14342;SDS011;7255;53.596;9.960;2023-02-28T06:33:44;14.37;;;7.50;;
14342;SDS011;7255;53.596;9.960;2023-02-28T06:36:12;9.60;;;6.93;;
14342;SDS011;7255;53.596;9.960;2023-02-28T06:38:39;9.33;;;7.23;;
14342;SDS011;7255;53.596;9.960;2023-02-28T06:41:08;15.17;;;7.67;;
14342;SDS011;7255;53.596;9.960;2023-02-28T06:43:36;8.13;;;6.67;;
14342;SDS011;7255;53.596;9.960;2023-02-28T06:46:06;9.77;;;7.17;;
14342;SDS011;7255;53.596;9.960;2023-02-28T06:48:34;11.40;;;8.07;;
14342;SDS011;7255;53.596;9.960;2023-02-28T06:51:01;11.40;;;8.13;;
14342;SDS011;7255;53.596;9.960;2023-02-28T06:53:28;11.67;;;7.20;;
14342;SDS011;7255;53.596;9.960;2023-02-28T06:55:55;8.30;;;7.43;;
14342;SDS011;7255;53.596;9.960;2023-02-28T06:58:22;10.43;;;7.37;;
14342;SDS011;7255;53.596;9.960;2023-02-28T07:00:50;12.87;;;7.93;;
14342;SDS011;7255;53.596;9.960;2023-02-28T07:03:18;10.63;;;6.90;;
14342;SDS011;7255;53.596;9.960;2023-02-28T07:05:45;9.57;;;6.33;;
14342;SDS011;7255;53.596;9.960;2023-02-28T07:08:11;8.27;;;7.07;;
14342;SDS011;7255;53.596;9.960;2023-02-28T07:10:38;10.10;;;8.10;;
14342;SDS011;7255;53.596;9.960;2023-02-28T07:13:05;14.80;;;7.80;;
14342;SDS011;7255;53.596;9.960;2023-02-28T07:15:34;22.23;;;8.70;;
14342;SDS011;7255;53.596;9.960;2023-02-28T07:18:01;10.40;;;7.80;;
14342;SDS011;7255;53.596;9.960;2023-02-28T07:20:28;10.90;;;8.27;;
14342;SDS011;7255;53.596;9.960;2023-02-28T07:22:54;9.63;;;8.00;;
14342;SDS011;7255;53.596;9.960;2023-02-28T07:25:21;9.13;;;8.00;;
14342;SDS011;7255;53.596;9.960;2023-02-28T07:27:47;12.83;;;8.67;;
14342;SDS011;7255;53.596;9.960;2023-02-28T07:30:14;14.27;;;8.70;;
14342;SDS011;7255;53.596;9.960;2023-02-28T07:32:42;13.63;;;8.20;;
14342;SDS011;7255;53.596;9.960;2023-02-28T07:35:08;12.87;;;9.33;;
14342;SDS011;7255;53.596;9.960;2023-02-28T07:37:35;11.57;;;8.83;;
14342;SDS011;7255;53.596;9.960;2023-02-28T07:40:02;15.07;;;9.37;;
14342;SDS011;7255;53.596;9.960;2023-02-28T07:42:32;13.43;;;8.80;;
14342;SDS011;7255;53.596;9.960;2023-02-28T07:44:58;13.70;;;8.80;;
14342;SDS011;7255;53.596;9.960;2023-02-28T07:47:24;15.10;;;8.13;;
14342;SDS011;7255;53.596;9.960;2023-02-28T07:49:52;13.33;;;8.60;;
14342;SDS011;7255;53.596;9.960;2023-02-28T07:52:18;13.50;;;9.43;;
14342;SDS011;7255;53.596;9.960;2023-02-28T07:54:45;15.33;;;8.93;;
14342;SDS011;7255;53.596;9.960;2023-02-28T07:57:11;11.53;;;9.30;;
14342;SDS011;7255;53.596;9.960;2023-02-28T07:59:37;12.63;;;8.90;;
14342;SDS011;7255;53.596;9.960;2023-02-28T08:02:04;14.10;;;7.83;;
14342;SDS011;7255;53.596;9.960;2023-02-28T08:04:31;15.90;;;8.07;;
14342;SDS011;7255;53.596;9.960;2023-02-28T08:06:59;11.87;;;7.97;;
14342;SDS011;7255;53.596;9.960;2023-02-28T08:09:25;10.53;;;7.43;;
14342;SDS011;7255;53.596;9.960;2023-02-28T08:11:52;12.50;;;7.87;;
14342;SDS011;7255;53.596;9.960;2023-02-28T08:14:18;10.20;;;6.97;;
14342;SDS011;7255;53.596;9.960;2023-02-28T08:16:44;10.90;;;7.13;;
14342;SDS011;7255;53.596;9.960;2023-02-28T08:19:11;6.20;;;5.60;;
14342;SDS011;7255;53.596;9.960;2023-02-28T08:21:37;8.60;;;5.80;;
14342;SDS011;7255;53.596;9.960;2023-02-28T08:24:05;8.40;;;5.60;;
14342;SDS011;7255;53.596;9.960;2023-02-28T08:26:32;8.43;;;4.93;;
14342;SDS011;7255;53.596;9.960;2023-02-28T08:28:58;5.60;;;4.73;;
14342;SDS011;7255;53.596;9.960;2023-02-28T08:31:25;5.03;;;4.53;;
14342;SDS011;7255;53.596;9.960;2023-02-28T08:33:51;7.67;;;4.33;;
14342;SDS011;7255;53.596;9.960;2023-02-28T08:36:18;10.30;;;5.47;;
14342;SDS011;7255;53.596;9.960;2023-02-28T08:38:45;6.03;;;4.07;;
14342;SDS011;7255;53.596;9.960;2023-02-28T08:41:12;5.53;;;4.57;;
14342;SDS011;7255;53.596;9.960;2023-02-28T08:43:39;4.27;;;3.43;;
14342;SDS011;7255;53.596;9.960;2023-02-28T08:46:06;6.10;;;4.20;;
14342;SDS011;7255;53.596;9.960;2023-02-28T08:48:34;4.23;;;3.53;;
14342;SDS011;7255;53.596;9.960;2023-02-28T08:51:04;5.57;;;3.80;;
14342;SDS011;7255;53.596;9.960;2023-02-28T08:53:31;5.47;;;3.53;;
14342;SDS011;7255;53.596;9.960;2023-02-28T08:55:58;4.70;;;3.17;;
14342;SDS011;7255;53.596;9.960;2023-02-28T08:58:27;4.13;;;2.90;;
14342;SDS011;7255;53.596;9.960;2023-02-28T09:00:53;3.63;;;2.93;;
14342;SDS011;7255;53.596;9.960;2023-02-28T09:03:20;3.23;;;2.87;;
14342;SDS011;7255;53.596;9.960;2023-02-28T09:05:54;5.07;;;2.80;;
14342;SDS011;7255;53.596;9.960;2023-02-28T09:08:22;5.60;;;3.17;;
14342;SDS011;7255;53.596;9.960;2023-02-28T09:10:48;5.17;;;3.00;;
14342;SDS011;7255;53.596;9.960;2023-02-28T09:13:15;3.30;;;2.63;;
14342;SDS011;7255;53.596;9.960;2023-02-28T09:15:43;2.87;;;2.67;;
14342;SDS011;7255;53.596;9.960;2023-02-28T09:18:09;2.57;;;2.00;;
14342;SDS011;7255;53.596;9.960;2023-02-28T09:20:37;2.53;;;2.33;;
14342;SDS011;7255;53.596;9.960;2023-02-28T09:23:03;7.30;;;2.43;;
14342;SDS011;7255;53.596;9.960;2023-02-28T09:25:30;3.90;;;2.33;;
14342;SDS011;7255;53.596;9.960;2023-02-28T09:27:56;2.50;;;2.30;;
14342;SDS011;7255;53.596;9.960;2023-02-28T09:30:22;2.60;;;2.40;;
14342;SDS011;7255;53.596;9.960;2023-02-28T09:32:50;3.70;;;2.50;;
14342;SDS011;7255;53.596;9.960;2023-02-28T09:35:17;3.70;;;2.60;;
14342;SDS011;7255;53.596;9.960;2023-02-28T09:37:43;2.93;;;2.27;;
14342;SDS011;7255;53.596;9.960;2023-02-28T09:40:10;2.30;;;2.10;;
14342;SDS011;7255;53.596;9.960;2023-02-28T09:42:38;2.63;;;2.20;;
14342;SDS011;7255;53.596;9.960;2023-02-28T09:45:06;2.67;;;2.47;;
14342;SDS011;7255;53.596;9.960;2023-02-28T09:47:47;2.70;;;2.20;;
14342;SDS011;7255;53.596;9.960;2023-02-28T09:50:19;3.00;;;2.13;;
14342;SDS011;7255;53.596;9.960;2023-02-28T09:52:55;2.60;;;2.40;;
14342;SDS011;7255;53.596;9.960;2023-02-28T09:55:33;2.60;;;2.10;;
14342;SDS011;7255;53.596;9.960;2023-02-28T09:58:05;3.03;;;1.87;;
14342;SDS011;7255;53.596;9.960;2023-02-28T10:00:44;2.30;;;2.00;;
14342;SDS011;7255;53.596;9.960;2023-02-28T10:03:22;3.70;;;2.23;;
14342;SDS011;7255;53.596;9.960;2023-02-28T10:05:56;4.40;;;2.20;;
14342;SDS011;7255;53.596;9.960;2023-02-28T10:08:30;3.03;;;1.93;;
14342;SDS011;7255;53.596;9.960;2023-02-28T10:11:06;4.33;;;2.20;;
14342;SDS011;7255;53.596;9.960;2023-02-28T10:13:36;2.97;;;1.93;;
14342;SDS011;7255;53.596;9.960;2023-02-28T10:16:10;2.50;;;2.30;;
14342;SDS011;7255;53.596;9.960;2023-02-28T10:18:42;2.50;;;2.30;;
14342;SDS011;7255;53.596;9.960;2023-02-28T10:21:15;3.73;;;3.00;;
14342;SDS011;7255;53.596;9.960;2023-02-28T10:23:46;4.77;;;2.70;;
14342;SDS011;7255;53.596;9.960;2023-02-28T10:26:14;2.23;;;1.83;;
14342;SDS011;7255;53.596;9.960;2023-02-28T10:28:43;3.10;;;2.10;;
14342;SDS011;7255;53.596;9.960;2023-02-28T10:31:11;2.17;;;1.97;;
14342;SDS011;7255;53.596;9.960;2023-02-28T10:33:39;2.20;;;1.97;;
14342;SDS011;7255;53.596;9.960;2023-02-28T10:36:10;2.67;;;1.90;;
14342;SDS011;7255;53.596;9.960;2023-02-28T10:38:41;2.47;;;2.27;;
14342;SDS011;7255;53.596;9.960;2023-02-28T10:41:09;4.00;;;2.40;;
14342;SDS011;7255;53.596;9.960;2023-02-28T10:43:37;2.13;;;1.93;;
14342;SDS011;7255;53.596;9.960;2023-02-28T10:46:09;2.43;;;2.23;;
14342;SDS011;7255;53.596;9.960;2023-02-28T10:48:40;2.70;;;2.33;;
14342;SDS011;7255;53.596;9.960;2023-02-28T10:51:10;2.73;;;2.20;;
14342;SDS011;7255;53.596;9.960;2023-02-28T10:53:38;3.77;;;2.10;;
14342;SDS011;7255;53.596;9.960;2023-02-28T10:56:14;2.07;;;1.90;;
14342;SDS011;7255;53.596;9.960;2023-02-28T10:58:50;2.10;;;1.90;;
14342;SDS011;7255;53.596;9.960;2023-02-28T11:01:19;3.13;;;2.20;;
14342;SDS011;7255;53.596;9.960;2023-02-28T11:03:47;2.23;;;2.03;;
14342;SDS011;7255;53.596;9.960;2023-02-28T11:06:17;2.40;;;2.00;;
14342;SDS011;7255;53.596;9.960;2023-02-28T11:08:47;3.33;;;2.73;;
14342;SDS011;7255;53.596;9.960;2023-02-28T11:11:15;3.63;;;2.10;;
14342;SDS011;7255;53.596;9.960;2023-02-28T11:13:42;3.97;;;2.20;;
14342;SDS011;7255;53.596;9.960;2023-02-28T11:16:10;2.30;;;2.10;;
14342;SDS011;7255;53.596;9.960;2023-02-28T11:18:40;2.77;;;2.10;;
14342;SDS011;7255;53.596;9.960;2023-02-28T11:21:14;3.30;;;2.40;;
14342;SDS011;7255;53.596;9.960;2023-02-28T11:23:44;3.23;;;2.27;;
14342;SDS011;7255;53.596;9.960;2023-02-28T11:26:11;2.17;;;1.97;;
14342;SDS011;7255;53.596;9.960;2023-02-28T11:28:38;2.50;;;1.70;;
14342;SDS011;7255;53.596;9.960;2023-02-28T11:31:14;2.73;;;2.10;;
14342;SDS011;7255;53.596;9.960;2023-02-28T11:33:45;2.67;;;2.20;;
14342;SDS011;7255;53.596;9.960;2023-02-28T11:36:16;2.37;;;2.17;;
14342;SDS011;7255;53.596;9.960;2023-02-28T11:38:49;2.77;;;2.20;;
14342;SDS011;7255;53.596;9.960;2023-02-28T11:41:19;2.17;;;1.73;;
14342;SDS011;7255;53.596;9.960;2023-02-28T11:44:05;4.80;;;2.13;;
14342;SDS011;7255;53.596;9.960;2023-02-28T11:46:43;2.87;;;2.13;;
14342;SDS011;7255;53.596;9.960;2023-02-28T11:49:18;2.30;;;2.10;;
14342;SDS011;7255;53.596;9.960;2023-02-28T11:51:58;4.33;;;1.93;;
14342;SDS011;7255;53.596;9.960;2023-02-28T11:54:34;2.23;;;2.13;;
14342;SDS011;7255;53.596;9.960;2023-02-28T11:57:17;2.37;;;2.03;;
14342;SDS011;7255;53.596;9.960;2023-02-28T11:59:58;2.97;;;2.57;;
14342;SDS011;7255;53.596;9.960;2023-02-28T12:02:32;2.57;;;2.37;;
14342;SDS011;7255;53.596;9.960;2023-02-28T12:05:22;3.53;;;2.00;;
14342;SDS011;7255;53.596;9.960;2023-02-28T12:08:00;2.03;;;1.87;;
14342;SDS011;7255;53.596;9.960;2023-02-28T12:10:37;3.03;;;2.07;;
14342;SDS011;7255;53.596;9.960;2023-02-28T12:13:12;2.53;;;2.33;;
14342;SDS011;7255;53.596;9.960;2023-02-28T12:15:49;2.83;;;2.60;;
14342;SDS011;7255;53.596;9.960;2023-02-28T12:18:53;2.50;;;2.30;;
14342;SDS011;7255;53.596;9.960;2023-02-28T12:21:35;3.60;;;2.40;;
14342;SDS011;7255;53.596;9.960;2023-02-28T12:24:20;2.63;;;2.07;;
14342;SDS011;7255;53.596;9.960;2023-02-28T12:26:57;2.17;;;2.00;;
14342;SDS011;7255;53.596;9.960;2023-02-28T12:29:27;1.83;;;1.73;;
14342;SDS011;7255;53.596;9.960;2023-02-28T12:31:56;4.70;;;1.70;;
14342;SDS011;7255;53.596;9.960;2023-02-28T12:34:31;2.93;;;1.93;;
14342;SDS011;7255;53.596;9.960;2023-02-28T12:37:01;3.40;;;2.13;;
14342;SDS011;7255;53.596;9.960;2023-02-28T12:39:35;2.77;;;1.83;;
14342;SDS011;7255;53.596;9.960;2023-02-28T12:42:05;2.95;;;2.50;;
14342;SDS011;7255;53.596;9.960;2023-02-28T12:44:40;3.25;;;1.98;;
14342;SDS011;7255;53.596;9.960;2023-02-28T12:47:13;3.57;;;2.00;;
14342;SDS011;7255;53.596;9.960;2023-02-28T12:49:42;2.93;;;2.43;;
14342;SDS011;7255;53.596;9.960;2023-02-28T12:52:13;3.10;;;2.17;;
14342;SDS011;7255;53.596;9.960;2023-02-28T12:54:46;2.33;;;2.13;;
14342;SDS011;7255;53.596;9.960;2023-02-28T12:57:22;3.05;;;2.37;;
14342;SDS011;7255;53.596;9.960;2023-02-28T12:59:59;4.10;;;2.35;;
14342;SDS011;7255;53.596;9.960;2023-02-28T13:02:49;3.27;;;2.53;;
14342;SDS011;7255;53.596;9.960;2023-02-28T13:05:39;5.60;;;2.47;;
14342;SDS011;7255;53.596;9.960;2023-02-28T13:11:27;4.62;;;2.65;;
14342;SDS011;7255;53.596;9.960;2023-02-28T13:13:59;4.22;;;2.95;;
14342;SDS011;7255;53.596;9.960;2023-02-28T13:16:28;3.40;;;2.30;;
14342;SDS011;7255;53.596;9.960;2023-02-28T13:19:09;2.70;;;2.28;;
14342;SDS011;7255;53.596;9.960;2023-02-28T13:21:43;2.90;;;2.47;;
14342;SDS011;7255;53.596;9.960;2023-02-28T13:24:11;4.62;;;2.17;;
14342;SDS011;7255;53.596;9.960;2023-02-28T13:27:21;3.53;;;2.20;;
14342;SDS011;7255;53.596;9.960;2023-02-28T13:29:50;2.22;;;2.03;;
14342;SDS011;7255;53.596;9.960;2023-02-28T13:35:12;5.32;;;2.67;;
14342;SDS011;7255;53.596;9.960;2023-02-28T13:37:44;3.78;;;2.45;;
14342;SDS011;7255;53.596;9.960;2023-02-28T13:40:29;3.30;;;2.40;;
14342;SDS011;7255;53.596;9.960;2023-02-28T13:43:05;3.00;;;1.90;;
14342;SDS011;7255;53.596;9.960;2023-02-28T13:45:34;4.35;;;2.22;;
14342;SDS011;7255;53.596;9.960;2023-02-28T13:48:04;4.47;;;2.20;;
14342;SDS011;7255;53.596;9.960;2023-02-28T13:50:42;2.50;;;2.10;;
14342;SDS011;7255;53.596;9.960;2023-02-28T13:53:19;4.45;;;2.35;;
14342;SDS011;7255;53.596;9.960;2023-02-28T13:55:59;2.60;;;2.40;;
14342;SDS011;7255;53.596;9.960;2023-02-28T13:58:36;2.40;;;2.20;;
14342;SDS011;7255;53.596;9.960;2023-02-28T14:01:15;2.53;;;2.20;;
14342;SDS011;7255;53.596;9.960;2023-02-28T14:03:57;2.78;;;2.35;;
14342;SDS011;7255;53.596;9.960;2023-02-28T14:06:38;4.05;;;2.40;;
14342;SDS011;7255;53.596;9.960;2023-02-28T14:09:16;5.72;;;2.22;;
14342;SDS011;7255;53.596;9.960;2023-02-28T14:11:48;3.83;;;2.25;;
14342;SDS011;7255;53.596;9.960;2023-02-28T14:17:15;4.25;;;2.55;;
14342;SDS011;7255;53.596;9.960;2023-02-28T14:19:43;2.67;;;2.40;;
14342;SDS011;7255;53.596;9.960;2023-02-28T14:22:16;3.75;;;3.05;;
14342;SDS011;7255;53.596;9.960;2023-02-28T14:25:08;2.80;;;2.50;;
14342;SDS011;7255;53.596;9.960;2023-02-28T14:27:43;3.17;;;2.62;;
14342;SDS011;7255;53.596;9.960;2023-02-28T14:33:22;3.62;;;2.62;;
14342;SDS011;7255;53.596;9.960;2023-02-28T14:36:10;2.60;;;2.22;;
14342;SDS011;7255;53.596;9.960;2023-02-28T14:38:43;2.97;;;2.60;;
14342;SDS011;7255;53.596;9.960;2023-02-28T14:41:15;6.25;;;2.65;;
14342;SDS011;7255;53.596;9.960;2023-02-28T14:43:49;3.35;;;2.20;;
14342;SDS011;7255;53.596;9.960;2023-02-28T14:46:21;3.20;;;2.72;;
14342;SDS011;7255;53.596;9.960;2023-02-28T14:48:52;7.65;;;3.10;;
14342;SDS011;7255;53.596;9.960;2023-02-28T14:51:19;2.92;;;2.60;;
14342;SDS011;7255;53.596;9.960;2023-02-28T14:53:48;4.10;;;2.90;;
14342;SDS011;7255;53.596;9.960;2023-02-28T14:56:19;2.92;;;2.62;;
14342;SDS011;7255;53.596;9.960;2023-02-28T14:58:51;5.97;;;2.72;;
14342;SDS011;7255;53.596;9.960;2023-02-28T15:01:19;5.28;;;2.80;;
14342;SDS011;7255;53.596;9.960;2023-02-28T15:03:47;4.23;;;2.23;;
14342;SDS011;7255;53.596;9.960;2023-02-28T15:06:16;4.90;;;2.80;;
14342;SDS011;7255;53.596;9.960;2023-02-28T15:08:43;3.08;;;2.60;;
14342;SDS011;7255;53.596;9.960;2023-02-28T15:11:13;4.32;;;2.50;;
14342;SDS011;7255;53.596;9.960;2023-02-28T15:13:42;3.45;;;2.50;;
14342;SDS011;7255;53.596;9.960;2023-02-28T15:16:11;5.68;;;2.50;;
14342;SDS011;7255;53.596;9.960;2023-02-28T15:18:43;4.87;;;2.53;;
14342;SDS011;7255;53.596;9.960;2023-02-28T15:21:15;4.65;;;2.75;;
14342;SDS011;7255;53.596;9.960;2023-02-28T15:23:44;4.12;;;2.42;;
14342;SDS011;7255;53.596;9.960;2023-02-28T15:26:15;6.17;;;2.43;;
14342;SDS011;7255;53.596;9.960;2023-02-28T15:28:44;5.87;;;2.80;;
14342;SDS011;7255;53.596;9.960;2023-02-28T15:31:19;5.15;;;2.85;;